12:13
Airports
Links
Donate
Help keep this website running!
PayPal
Bitcoin
METAR
YSCB 121200Z AUTO 06004KT 9999 // NCD 20/16 Q1017
Current Weather Conditions at YSCB
VFR 12:00:00 12-12-17
Automated station, no observer
Altimeter:30.03 hg
Temp:20.0°c 68°f
Dew point:16.0°c 61°f
Wind:4 knots, 4.6 mph, 2 m/s, from 60°
Visibility:6.21 statute miles
(CLR) Clear
Past METAR reports
VFR 11:30:00 12-12-17
Automated station, no observer
Altimeter:30.03 hg
Temp:21.0°c 70°f
Dew point:15.0°c 59°f
Wind:5 knots, 5.8 mph, 3 m/s, from 40°
Visibility:6.21 statute miles
(CLR) Clear
YSCB 121130Z AUTO 04005KT 010V070 9999 // NCD 21/15 Q1017
VFR 11:00:00 12-12-17
Automated station, no observer
Altimeter:30.00 hg
Temp:21.0°c 70°f
Dew point:14.0°c 57°f
Wind:6 knots, 6.9 mph, 3 m/s, from 90°
Visibility:6.21 statute miles
(CLR) Clear
YSCB 121100Z AUTO 09006KT 9999 // NCD 21/14 Q1016
VFR 10:30:00 12-12-17
Automated station, no observer
Altimeter:30.00 hg
Temp:20.0°c 68°f
Dew point:8.0°c 46°f
Wind:7 knots, 8.1 mph, 4 m/s, from 80°
Visibility:6.21 statute miles
(CLR) Clear
YSCB 121030Z AUTO 08007KT 050V110 9999 // NCD 20/08 Q1016
VFR 10:00:00 12-12-17
Automated station, no observer
Altimeter:30.00 hg
Temp:23.0°c 73°f
Dew point:8.0°c 46°f
Wind:6 knots, 6.9 mph, 3 m/s, from 360°
Visibility:6.21 statute miles
(CLR) Clear
YSCB 121000Z AUTO 36006KT 9999 // NCD 23/08 Q1016
VFR 09:30:00 12-12-17
Altimeter:30.00 hg
Temp:24.0°c 75°f
Dew point:8.0°c 46°f
Wind:7 knots, 8.1 mph, 4 m/s, from 350°
Visibility:6.21 statute miles
(CAVOK)
YSCB 120930Z 35007KT CAVOK 24/08 Q1016 1730Z
VFR 09:00:00 12-12-17
Altimeter:29.97 hg
Temp:25.0°c 77°f
Dew point:8.0°c 46°f
Wind:9 knots, 10.4 mph, 5 m/s, from 310°
Visibility:6.21 statute miles
(CAVOK)
No significant weather changes expected within 2 hours.
YSCB 120900Z 31009KT CAVOK 25/08 Q1015 NOSIG RMK USE TAF FOR ARRIVALS AFTER 0930Z
TAF
TAF YSCB 121110Z 1212/1312 08008KT CAVOK FM121300 15005KT 9999 SCT010 FM122200 33008KT 9999 FEW020 FM130000 29013KT CAVOK FM131000 12005KT CAVOK
Forecast at YSCB
12:00 12-12-17 to 13:00 12-12-17
NSW
Wind:8 Knots from 80°
Visibility:6.21 statute miles
NSC
FM 13:00 12-12-17 to 22:00 12-12-17
Wind:5 Knots from 150°
Visibility:6.21 statute miles
1000SCT Scattered
FM 22:00 12-12-17 to 00:00 13-12-17
Wind:8 Knots from 330°
Visibility:6.21 statute miles
2000FEW A few
FM 00:00 13-12-17 to 10:00 13-12-17
NSW
Wind:13 Knots from 290°
Visibility:6.21 statute miles
NSC
FM 10:00 13-12-17 to 12:00 13-12-17
NSW
Wind:5 Knots from 120°
Visibility:6.21 statute miles
NSC